Time;durP1;ratioP1;P1;durP2;ratioP2;P2;SDS_P1;SDS_P2;PMS_P1;PMS_P2;Temp;Humidity;BMP_temperature;BMP_pressure;BME280_temperature;BME280_humidity;BME280_pressure;Samples;Min_cycle;Max_cycle;Signal;HPM_P1;HPM_P2
2022/02/26 00:01:30;;;;;;;;;;;2.10;99.90;;;;;;8383118;28;19939;-71
2022/02/26 00:05:33;;;;;;;;;;;2.10;99.90;;;;;;8391784;28;20291;-71
2022/02/26 00:09:35;;;;;;;;;;;2.00;99.90;;;;;;8401139;28;19924;-71
2022/02/26 00:13:37;;;;;;;;;;;1.90;99.90;;;;;;8403017;28;19931;-71
2022/02/26 00:17:39;;;;;;;;;;;1.90;99.90;;;;;;8400772;28;19924;-71
2022/02/26 00:21:40;;;;;;;;;;;1.80;99.90;;;;;;8403356;28;19931;-71
2022/02/26 00:25:42;;;;;;;;;;;1.80;99.90;;;;;;8390734;28;20280;-73
2022/02/26 00:29:44;;;;;;;;;;;1.80;99.90;;;;;;8387418;28;20379;-71
2022/02/26 00:33:46;;;;;;;;;;;1.70;99.90;;;;;;8395982;28;19932;-71
2022/02/26 00:37:48;;;;;;;;;;;1.60;99.90;;;;;;8393503;28;19927;-71
2022/02/26 00:41:50;;;;;;;;;;;1.50;99.90;;;;;;8410142;28;19924;-71
2022/02/26 00:45:52;;;;;;;;;;;1.50;99.90;;;;;;8406347;28;19932;-71
2022/02/26 00:49:54;;;;;;;;;;;1.40;99.90;;;;;;8382498;28;20644;-71
2022/02/26 00:53:56;;;;;;;;;;;1.40;99.90;;;;;;8408331;28;19935;-71
2022/02/26 00:57:58;;;;;;;;;;;1.30;99.90;;;;;;8390474;28;19924;-71
2022/02/26 01:01:59;;;;;;;;;;;1.30;99.90;;;;;;8402529;28;19924;-71
2022/02/26 01:06:06;;;;;;;;;;;1.20;99.90;;;;;;8402480;28;19928;-71
2022/02/26 01:10:08;;;;;;;;;;;1.20;99.90;;;;;;8399105;28;19924;-70
2022/02/26 01:14:10;;;;;;;;;;;1.10;99.90;;;;;;8409494;28;19924;-71
2022/02/26 01:18:11;;;;;;;;;;;1.10;99.90;;;;;;8398549;28;20359;-71
2022/02/26 01:22:13;;;;;;;;;;;1.10;99.90;;;;;;8403003;28;19928;-71
2022/02/26 01:26:18;;;;;;;;;;;1.10;99.90;;;;;;8401655;28;19946;-71
2022/02/26 01:30:20;;;;;;;;;;;1.10;99.90;;;;;;8407895;28;19932;-71
2022/02/26 01:34:22;;;;;;;;;;;1.00;99.90;;;;;;8387930;28;20285;-71
2022/02/26 01:38:24;;;;;;;;;;;1.00;99.90;;;;;;8400625;28;19924;-71
2022/02/26 01:42:25;;;;;;;;;;;1.00;99.90;;;;;;8402129;28;19928;-71
2022/02/26 01:46:27;;;;;;;;;;;0.90;99.90;;;;;;8405488;28;19932;-71
2022/02/26 01:50:29;;;;;;;;;;;0.80;99.90;;;;;;8399930;28;20342;-71
2022/02/26 01:54:31;;;;;;;;;;;0.80;99.90;;;;;;8396732;28;19928;-71
2022/02/26 01:58:34;;;;;;;;;;;0.80;99.90;;;;;;8401067;28;19931;-71
2022/02/26 02:02:35;;;;;;;;;;;0.80;99.90;;;;;;8408014;28;20379;-71
2022/02/26 02:06:38;;;;;;;;;;;0.70;99.90;;;;;;8405935;28;20228;-71
2022/02/26 02:10:41;;;;;;;;;;;0.70;99.90;;;;;;8401400;28;19931;-71
2022/02/26 02:14:45;;;;;;;;;;;0.70;99.90;;;;;;8387272;28;19929;-71
2022/02/26 02:18:46;;;;;;;;;;;0.60;99.90;;;;;;8397805;28;20352;-71
2022/02/26 02:22:48;;;;;;;;;;;0.50;99.90;;;;;;8398498;28;19935;-71
2022/02/26 02:26:50;;;;;;;;;;;0.50;99.90;;;;;;8402101;28;19924;-71
2022/02/26 02:30:52;;;;;;;;;;;0.50;99.90;;;;;;8380844;28;20284;-71
2022/02/26 02:34:54;;;;;;;;;;;0.40;99.90;;;;;;8381244;28;19935;-71
2022/02/26 02:38:55;;;;;;;;;;;0.40;99.90;;;;;;8399444;28;19931;-71
2022/02/26 02:42:57;;;;;;;;;;;0.30;99.90;;;;;;8401439;28;19959;-71
2022/02/26 02:46:59;;;;;;;;;;;0.30;99.90;;;;;;8406391;28;20384;-71
2022/02/26 02:51:00;;;;;;;;;;;0.30;99.90;;;;;;8388170;28;19936;-71
2022/02/26 02:55:02;;;;;;;;;;;0.30;99.90;;;;;;8399719;28;19925;-71
2022/02/26 02:59:04;;;;;;;;;;;0.30;99.90;;;;;;8379795;28;20344;-71
2022/02/26 03:03:06;;;;;;;;;;;0.20;99.90;;;;;;8396247;28;19929;-71
2022/02/26 03:07:08;;;;;;;;;;;0.20;99.90;;;;;;8396032;28;19924;-71
2022/02/26 03:11:10;;;;;;;;;;;0.20;99.90;;;;;;8400522;28;20395;-71
2022/02/26 03:15:11;;;;;;;;;;;0.20;99.90;;;;;;8403123;28;19931;-72
2022/02/26 03:19:13;;;;;;;;;;;0.20;99.90;;;;;;8402877;28;19935;-71
2022/02/26 03:23:15;;;;;;;;;;;0.10;99.90;;;;;;8398260;28;19970;-71
2022/02/26 03:27:16;;;;;;;;;;;0.10;99.90;;;;;;8389517;28;19929;-71
2022/02/26 03:31:18;;;;;;;;;;;0.10;99.90;;;;;;8398203;28;19924;-71
2022/02/26 03:35:20;;;;;;;;;;;0.00;99.90;;;;;;8390041;28;20376;-71
2022/02/26 03:39:22;;;;;;;;;;;0.00;99.90;;;;;;8390965;28;20434;-71
2022/02/26 03:43:23;;;;;;;;;;;0.00;99.90;;;;;;8397683;28;19971;-71
2022/02/26 03:47:25;;;;;;;;;;;0.00;99.90;;;;;;8395870;28;19932;-71
2022/02/26 03:51:26;;;;;;;;;;;0.00;99.90;;;;;;8400916;28;19932;-71
2022/02/26 03:55:28;;;;;;;;;;;0.00;99.90;;;;;;8395159;28;19925;-71
2022/02/26 03:59:30;;;;;;;;;;;-0.10;99.90;;;;;;8409337;28;19936;-71
2022/02/26 04:03:31;;;;;;;;;;;-0.10;99.90;;;;;;8398070;28;19924;-71
2022/02/26 04:07:34;;;;;;;;;;;-0.10;99.90;;;;;;8401807;28;20090;-71
2022/02/26 04:11:36;;;;;;;;;;;-0.20;99.90;;;;;;8407584;28;19962;-71
2022/02/26 04:15:38;;;;;;;;;;;-0.20;99.90;;;;;;8385410;28;19985;-71
2022/02/26 04:19:39;;;;;;;;;;;-0.20;99.90;;;;;;8404908;28;19973;-71
2022/02/26 04:23:41;;;;;;;;;;;-0.20;99.90;;;;;;8401003;28;20268;-71
2022/02/26 04:27:43;;;;;;;;;;;-0.20;99.90;;;;;;8383909;28;19924;-71
2022/02/26 04:31:44;;;;;;;;;;;-0.20;99.90;;;;;;8386394;28;19924;-71
2022/02/26 04:35:46;;;;;;;;;;;-0.20;99.90;;;;;;8391424;28;20407;-71
2022/02/26 04:39:48;;;;;;;;;;;-0.30;99.90;;;;;;8375494;28;19960;-71
2022/02/26 04:43:50;;;;;;;;;;;-0.30;99.90;;;;;;8395710;28;20425;-71
2022/02/26 04:47:51;;;;;;;;;;;-0.30;99.90;;;;;;8397785;28;20018;-71
2022/02/26 04:51:53;;;;;;;;;;;-0.40;99.90;;;;;;8401359;28;19931;-71
2022/02/26 04:55:55;;;;;;;;;;;-0.40;99.90;;;;;;8380939;28;19928;-71
2022/02/26 04:59:56;;;;;;;;;;;-0.40;99.90;;;;;;8377598;28;19928;-71
2022/02/26 05:03:58;;;;;;;;;;;-0.40;99.90;;;;;;8405227;28;19932;-71
2022/02/26 05:08:00;;;;;;;;;;;-0.40;99.90;;;;;;8374942;28;19935;-71
2022/02/26 05:12:01;;;;;;;;;;;-0.40;99.90;;;;;;8395435;28;19924;-71
2022/02/26 05:16:03;;;;;;;;;;;-0.50;99.90;;;;;;8410448;28;19924;-71
2022/02/26 05:20:05;;;;;;;;;;;-0.40;99.90;;;;;;8400667;28;20021;-72
2022/02/26 05:24:07;;;;;;;;;;;-0.50;99.90;;;;;;8402983;28;19935;-71
2022/02/26 05:28:09;;;;;;;;;;;-0.50;99.90;;;;;;8392615;28;19944;-72
2022/02/26 05:32:10;;;;;;;;;;;-0.50;99.90;;;;;;8400892;28;19925;-72
2022/02/26 05:36:12;;;;;;;;;;;-0.40;99.90;;;;;;8401423;28;19928;-71
2022/02/26 05:40:14;;;;;;;;;;;-0.50;99.90;;;;;;8380180;28;20372;-71
2022/02/26 05:44:16;;;;;;;;;;;-0.50;99.90;;;;;;8398856;28;19924;-71
2022/02/26 05:48:17;;;;;;;;;;;-0.50;99.90;;;;;;8392848;28;19932;-71
2022/02/26 05:52:19;;;;;;;;;;;-0.40;99.90;;;;;;8398134;28;19936;-72
2022/02/26 05:56:21;;;;;;;;;;;-0.40;99.90;;;;;;8402418;28;19924;-73
2022/02/26 06:00:22;;;;;;;;;;;-0.40;99.90;;;;;;8397700;28;20395;-72
2022/02/26 06:04:24;;;;;;;;;;;-0.30;99.90;;;;;;8399902;28;20311;-71
2022/02/26 06:08:26;;;;;;;;;;;-0.20;99.90;;;;;;8378429;28;19931;-71
2022/02/26 06:12:27;;;;;;;;;;;-0.20;99.90;;;;;;8406018;28;19935;-71
2022/02/26 06:16:34;;;;;;;;;;;-0.10;99.90;;;;;;8377755;28;19928;-71
2022/02/26 06:20:35;;;;;;;;;;;-0.10;99.90;;;;;;8389461;28;19924;-72
2022/02/26 06:24:37;;;;;;;;;;;-0.10;99.90;;;;;;8382568;28;19962;-72
2022/02/26 06:28:38;;;;;;;;;;;0.00;99.90;;;;;;8387685;28;19928;-72
2022/02/26 06:32:41;;;;;;;;;;;0.00;99.90;;;;;;8403785;28;19928;-72
2022/02/26 06:36:43;;;;;;;;;;;0.00;99.90;;;;;;8383158;28;19979;-71
2022/02/26 06:40:45;;;;;;;;;;;-0.10;99.90;;;;;;8389338;28;19932;-72
2022/02/26 06:44:47;;;;;;;;;;;-0.10;99.90;;;;;;8403889;28;19924;-72
2022/02/26 06:48:49;;;;;;;;;;;-0.10;99.90;;;;;;8402949;28;19924;-72
2022/02/26 06:52:51;;;;;;;;;;;-0.10;99.90;;;;;;8404511;28;19924;-71
2022/02/26 06:56:52;;;;;;;;;;;-0.10;99.90;;;;;;8373249;28;19932;-72
2022/02/26 07:00:55;;;;;;;;;;;-0.10;99.90;;;;;;8392764;28;19940;-72
2022/02/26 07:04:56;;;;;;;;;;;-0.10;99.90;;;;;;8398901;28;19964;-72
2022/02/26 07:08:58;;;;;;;;;;;-0.10;99.90;;;;;;8397062;28;19928;-72
2022/02/26 07:13:00;;;;;;;;;;;-0.10;99.90;;;;;;8387254;28;19928;-71
2022/02/26 07:17:01;;;;;;;;;;;-0.10;99.90;;;;;;8402638;28;19928;-72
2022/02/26 07:21:03;;;;;;;;;;;-0.10;99.90;;;;;;8392527;28;19931;-72
2022/02/26 07:25:05;;;;;;;;;;;0.00;99.90;;;;;;8388830;28;19932;-72
2022/02/26 07:29:07;;;;;;;;;;;0.00;99.90;;;;;;8381610;28;19935;-72
2022/02/26 07:33:09;;;;;;;;;;;0.10;99.90;;;;;;8392873;28;20342;-72
2022/02/26 07:37:11;;;;;;;;;;;0.20;99.90;;;;;;8406738;28;19924;-72
2022/02/26 07:41:13;;;;;;;;;;;0.20;99.90;;;;;;8401274;28;19924;-75
2022/02/26 07:45:15;;;;;;;;;;;0.30;99.90;;;;;;8401950;28;19932;-72
2022/02/26 07:49:17;;;;;;;;;;;0.40;99.90;;;;;;8401559;28;19976;-71
2022/02/26 07:53:21;;;;;;;;;;;0.50;99.90;;;;;;8397351;28;19970;-72
2022/02/26 07:57:22;;;;;;;;;;;0.60;99.90;;;;;;8408456;28;19925;-72
2022/02/26 08:01:24;;;;;;;;;;;0.70;99.90;;;;;;8382673;28;19935;-71
2022/02/26 08:05:27;;;;;;;;;;;0.80;99.90;;;;;;8385937;28;19924;-71
2022/02/26 08:09:30;;;;;;;;;;;1.00;99.90;;;;;;8397649;28;19932;-71
2022/02/26 08:13:32;;;;;;;;;;;1.10;99.90;;;;;;8402673;28;19932;-71
2022/02/26 08:17:33;;;;;;;;;;;1.20;99.90;;;;;;8403726;28;19928;-72
2022/02/26 08:21:35;;;;;;;;;;;1.40;99.90;;;;;;8407572;28;19924;-72
2022/02/26 08:25:37;;;;;;;;;;;1.50;99.90;;;;;;8400811;28;20042;-72
2022/02/26 08:29:39;;;;;;;;;;;1.60;99.90;;;;;;8399591;28;19935;-72
2022/02/26 08:33:41;;;;;;;;;;;1.80;99.90;;;;;;8406614;28;20386;-72
2022/02/26 08:37:43;;;;;;;;;;;1.90;99.90;;;;;;8383418;28;20403;-71
2022/02/26 08:41:44;;;;;;;;;;;2.00;99.90;;;;;;8403578;28;19924;-71
2022/02/26 08:45:47;;;;;;;;;;;2.20;99.90;;;;;;8410684;28;20288;-72
2022/02/26 08:49:48;;;;;;;;;;;2.30;99.90;;;;;;8397903;28;20452;-72
2022/02/26 08:53:52;;;;;;;;;;;2.40;99.90;;;;;;8406751;28;19928;-71
2022/02/26 08:57:53;;;;;;;;;;;2.60;99.90;;;;;;8389242;28;19932;-72
2022/02/26 09:01:55;;;;;;;;;;;2.70;99.90;;;;;;8406719;28;19931;-71
2022/02/26 09:05:57;;;;;;;;;;;2.80;99.90;;;;;;8403005;28;19969;-72
2022/02/26 09:09:59;;;;;;;;;;;3.00;99.90;;;;;;8389489;28;19944;-71
2022/02/26 09:14:00;;;;;;;;;;;3.20;99.90;;;;;;8394709;28;19928;-72
2022/02/26 09:18:02;;;;;;;;;;;3.40;99.90;;;;;;8403076;28;19933;-72
2022/02/26 09:22:04;;;;;;;;;;;3.50;99.90;;;;;;8409782;28;20364;-71
2022/02/26 09:26:06;;;;;;;;;;;3.70;99.90;;;;;;8412244;28;20024;-72
2022/02/26 09:30:12;;;;;;;;;;;3.90;99.90;;;;;;8401140;28;19940;-72
2022/02/26 09:34:14;;;;;;;;;;;4.00;99.90;;;;;;8407593;28;19931;-72
2022/02/26 09:38:16;;;;;;;;;;;4.10;99.90;;;;;;8413582;28;19931;-71
2022/02/26 09:42:22;;;;;;;;;;;4.30;99.90;;;;;;8413017;28;19924;-71
2022/02/26 09:46:23;;;;;;;;;;;4.40;99.90;;;;;;8417196;28;19976;-71
2022/02/26 09:50:25;;;;;;;;;;;4.80;99.90;;;;;;8404706;28;19924;-72
2022/02/26 09:54:27;;;;;;;;;;;5.10;99.90;;;;;;8388651;28;19932;-72
2022/02/26 09:58:28;;;;;;;;;;;5.40;99.90;;;;;;8392058;28;19928;-72
2022/02/26 10:02:31;;;;;;;;;;;5.90;99.90;;;;;;8403628;28;19939;-72
2022/02/26 10:06:32;;;;;;;;;;;6.40;99.90;;;;;;8406640;28;19994;-72
2022/02/26 10:10:42;;;;;;;;;;;6.90;99.90;;;;;;8409742;28;19936;-71
2022/02/26 10:14:43;;;;;;;;;;;7.30;99.90;;;;;;8409647;28;19927;-71
2022/02/26 10:18:52;;;;;;;;;;;7.60;99.90;;;;;;8411860;28;20402;-71
2022/02/26 10:22:54;;;;;;;;;;;7.90;99.90;;;;;;8384303;28;19925;-72
2022/02/26 10:26:57;;;;;;;;;;;8.20;99.90;;;;;;8408147;28;19932;-72
2022/02/26 10:31:01;;;;;;;;;;;8.40;99.90;;;;;;8410934;28;19929;-72
2022/02/26 10:35:05;;;;;;;;;;;8.60;99.90;;;;;;8408939;28;20284;-72
2022/02/26 10:39:07;;;;;;;;;;;9.10;99.90;;;;;;8407909;28;19930;-71
2022/02/26 10:43:08;;;;;;;;;;;9.80;99.90;;;;;;8388137;28;19982;-71
2022/02/26 10:47:12;;;;;;;;;;;10.30;99.90;;;;;;8407005;28;19924;-72
2022/02/26 10:51:18;;;;;;;;;;;10.60;99.90;;;;;;8390912;28;19924;-72
2022/02/26 10:55:20;;;;;;;;;;;10.70;99.90;;;;;;8393478;28;19932;-71
2022/02/26 10:59:39;;;;;;;;;;;10.80;99.90;;;;;;8402931;28;19971;-72
2022/02/26 11:03:40;;;;;;;;;;;11.10;99.90;;;;;;8384035;28;19965;-71
2022/02/26 11:07:44;;;;;;;;;;;11.60;99.90;;;;;;8405952;28;19928;-71
2022/02/26 11:11:49;;;;;;;;;;;11.90;99.90;;;;;;8399138;28;19925;-72
2022/02/26 11:15:52;;;;;;;;;;;12.10;99.90;;;;;;8406221;28;20279;-72
2022/02/26 11:19:56;;;;;;;;;;;12.20;99.90;;;;;;8398379;28;19925;-71
2022/02/26 11:23:58;;;;;;;;;;;12.50;99.90;;;;;;8401530;28;20038;-71
2022/02/26 11:28:00;;;;;;;;;;;12.80;99.90;;;;;;8397048;28;19932;-71
2022/02/26 11:32:05;;;;;;;;;;;13.30;99.90;;;;;;8393722;28;19947;-71
2022/02/26 11:36:07;;;;;;;;;;;13.30;99.90;;;;;;8393811;28;19987;-71
2022/02/26 11:40:11;;;;;;;;;;;13.50;99.90;;;;;;8387160;28;19935;-71
2022/02/26 11:44:12;;;;;;;;;;;13.70;99.90;;;;;;8398756;28;19929;-71
2022/02/26 11:48:17;;;;;;;;;;;13.20;99.90;;;;;;8401131;28;19928;-71
2022/02/26 11:52:34;;;;;;;;;;;12.90;99.90;;;;;;8392127;28;19939;-71
2022/02/26 11:56:49;;;;;;;;;;;13.00;99.90;;;;;;8385723;28;19931;-71
2022/02/26 12:00:52;;;;;;;;;;;13.50;99.90;;;;;;8411386;28;19935;-71
2022/02/26 12:04:57;;;;;;;;;;;14.00;99.90;;;;;;8400520;28;20371;-72
2022/02/26 12:09:11;;;;;;;;;;;14.00;99.90;;;;;;8394834;28;19924;-71
2022/02/26 12:13:22;;;;;;;;;;;14.30;99.90;;;;;;8413184;28;19932;-71
2022/02/26 12:17:24;;;;;;;;;;;14.70;99.90;;;;;;8387918;28;20372;-71
2022/02/26 12:21:42;;;;;;;;;;;15.20;99.90;;;;;;8397856;28;19924;-71
2022/02/26 12:25:44;;;;;;;;;;;15.20;99.90;;;;;;8410235;28;19988;-71
2022/02/26 12:29:46;;;;;;;;;;;15.20;99.90;;;;;;8413813;28;19924;-71
2022/02/26 12:33:48;;;;;;;;;;;15.10;99.90;;;;;;8407192;28;19924;-71
2022/02/26 12:37:49;;;;;;;;;;;14.40;99.90;;;;;;8382675;28;19928;-71
2022/02/26 12:41:51;;;;;;;;;;;14.10;99.90;;;;;;8412890;28;19940;-71
2022/02/26 12:45:53;;;;;;;;;;;14.70;99.90;;;;;;8412180;28;19924;-71
2022/02/26 12:49:55;;;;;;;;;;;14.40;99.90;;;;;;8413296;28;20376;-72
2022/02/26 12:54:00;;;;;;;;;;;14.40;99.90;;;;;;8406610;28;19939;-71
2022/02/26 12:58:02;;;;;;;;;;;14.70;99.90;;;;;;8399066;28;19925;-71
2022/02/26 13:02:05;;;;;;;;;;;14.80;99.90;;;;;;8413933;28;19954;-71
2022/02/26 13:06:07;;;;;;;;;;;14.90;99.90;;;;;;8413174;28;19924;-71
2022/02/26 13:10:09;;;;;;;;;;;14.70;99.90;;;;;;8414842;28;19955;-71
2022/02/26 13:14:11;;;;;;;;;;;14.60;99.90;;;;;;8417839;28;19924;-71
2022/02/26 13:18:13;;;;;;;;;;;14.40;99.90;;;;;;8406460;28;19924;-71
2022/02/26 13:22:15;;;;;;;;;;;14.00;99.90;;;;;;8418229;28;19924;-71
2022/02/26 13:26:26;;;;;;;;;;;13.30;99.90;;;;;;8389847;28;19931;-71
2022/02/26 13:30:48;;;;;;;;;;;12.80;99.90;;;;;;8415155;28;19924;-71
2022/02/26 13:34:59;;;;;;;;;;;12.60;99.90;;;;;;8412498;28;19925;-71
2022/02/26 13:39:00;;;;;;;;;;;12.60;99.90;;;;;;8405152;28;19936;-71
2022/02/26 13:43:08;;;;;;;;;;;12.60;99.90;;;;;;8407922;28;19928;-71
2022/02/26 13:47:11;;;;;;;;;;;12.30;99.90;;;;;;8409717;28;20359;-71
2022/02/26 13:51:12;;;;;;;;;;;12.00;99.90;;;;;;8405971;28;19924;-71
2022/02/26 13:55:16;;;;;;;;;;;11.80;99.90;;;;;;8394569;28;19935;-71
2022/02/26 13:59:17;;;;;;;;;;;11.80;99.90;;;;;;8386302;28;20299;-71
2022/02/26 14:03:19;;;;;;;;;;;11.80;99.90;;;;;;8386965;28;19963;-71
2022/02/26 14:07:34;;;;;;;;;;;12.00;99.90;;;;;;8401411;28;19924;-71
2022/02/26 14:11:35;;;;;;;;;;;12.00;99.90;;;;;;8403869;28;19925;-71
2022/02/26 14:15:41;;;;;;;;;;;11.90;99.90;;;;;;8408208;28;19924;-71
2022/02/26 14:19:43;;;;;;;;;;;11.80;99.90;;;;;;8390485;28;19964;-71
2022/02/26 14:23:45;;;;;;;;;;;11.50;99.90;;;;;;8401183;28;20268;-71
2022/02/26 14:27:48;;;;;;;;;;;11.30;99.90;;;;;;8390475;28;19952;-71
2022/02/26 14:31:57;;;;;;;;;;;11.20;99.90;;;;;;8413163;28;20596;-72
2022/02/26 14:35:58;;;;;;;;;;;11.30;99.90;;;;;;8401545;28;19925;-71
2022/02/26 14:40:05;;;;;;;;;;;11.60;99.90;;;;;;8409659;28;19928;-71
2022/02/26 14:44:09;;;;;;;;;;;12.40;99.90;;;;;;8414701;28;19923;-71
2022/02/26 14:48:12;;;;;;;;;;;13.80;99.90;;;;;;8408276;28;19924;-71
2022/02/26 14:52:14;;;;;;;;;;;14.30;99.90;;;;;;8408389;28;19932;-71
2022/02/26 14:56:15;;;;;;;;;;;14.80;99.90;;;;;;8410928;28;19925;-71
2022/02/26 15:00:19;;;;;;;;;;;15.30;99.90;;;;;;8411025;28;20339;-71
2022/02/26 15:04:22;;;;;;;;;;;15.90;99.90;;;;;;8412251;28;19932;-71
2022/02/26 15:08:23;;;;;;;;;;;15.80;99.90;;;;;;8406735;28;19936;-71
2022/02/26 15:12:25;;;;;;;;;;;15.70;99.90;;;;;;8412821;28;19932;-71
2022/02/26 15:16:27;;;;;;;;;;;16.30;99.90;;;;;;8396819;28;19932;-71
2022/02/26 15:20:28;;;;;;;;;;;16.50;99.90;;;;;;8395738;28;19946;-71
2022/02/26 15:24:30;;;;;;;;;;;16.10;99.90;;;;;;8411416;28;19944;-71
2022/02/26 15:28:32;;;;;;;;;;;15.90;99.90;;;;;;8405013;28;19931;-71
2022/02/26 15:32:34;;;;;;;;;;;15.80;99.90;;;;;;8396373;28;19935;-71
2022/02/26 15:36:36;;;;;;;;;;;15.40;99.90;;;;;;8404304;28;20397;-71
2022/02/26 15:40:38;;;;;;;;;;;15.20;99.90;;;;;;8410186;28;19962;-71
2022/02/26 15:44:40;;;;;;;;;;;15.10;99.90;;;;;;8412945;28;19928;-71
2022/02/26 15:48:41;;;;;;;;;;;14.60;99.90;;;;;;8409558;28;20026;-71
2022/02/26 15:52:43;;;;;;;;;;;14.20;99.90;;;;;;8390964;28;20287;-70
2022/02/26 15:56:47;;;;;;;;;;;14.20;99.90;;;;;;8400155;28;20462;-71
2022/02/26 16:00:49;;;;;;;;;;;14.40;99.90;;;;;;8400319;28;19925;-70
2022/02/26 16:04:51;;;;;;;;;;;14.40;99.90;;;;;;8386200;28;20014;-70
2022/02/26 16:08:52;;;;;;;;;;;14.40;99.90;;;;;;8391246;28;19924;-70
2022/02/26 16:12:54;;;;;;;;;;;14.20;99.90;;;;;;8402086;28;20260;-70
2022/02/26 16:16:56;;;;;;;;;;;13.90;99.90;;;;;;8397551;28;19935;-70
2022/02/26 16:20:57;;;;;;;;;;;13.60;99.90;;;;;;8411591;28;19925;-70
2022/02/26 16:24:59;;;;;;;;;;;13.20;99.90;;;;;;8403600;28;19928;-70
2022/02/26 16:29:01;;;;;;;;;;;12.70;99.90;;;;;;8385676;28;19928;-70
2022/02/26 16:33:03;;;;;;;;;;;12.30;99.90;;;;;;8401459;28;19957;-70
2022/02/26 16:37:05;;;;;;;;;;;12.00;99.90;;;;;;8400246;28;20415;-70
2022/02/26 16:41:07;;;;;;;;;;;11.70;99.90;;;;;;8402112;28;19993;-70
2022/02/26 16:45:08;;;;;;;;;;;11.20;99.90;;;;;;8389630;28;19936;-70
2022/02/26 16:49:10;;;;;;;;;;;10.90;99.90;;;;;;8404426;28;19931;-70
2022/02/26 16:53:13;;;;;;;;;;;10.50;99.90;;;;;;8381967;28;19955;-70
2022/02/26 16:57:15;;;;;;;;;;;10.30;99.90;;;;;;8363835;28;19928;-70
2022/02/26 17:01:16;;;;;;;;;;;10.10;99.90;;;;;;8384563;28;19972;-70
2022/02/26 17:05:18;;;;;;;;;;;9.80;99.90;;;;;;8385044;28;19924;-70
2022/02/26 17:09:20;;;;;;;;;;;9.60;99.90;;;;;;8368466;28;20291;-70
2022/02/26 17:13:22;;;;;;;;;;;9.40;99.90;;;;;;8382359;28;19935;-70
2022/02/26 17:17:24;;;;;;;;;;;9.20;99.90;;;;;;8378916;28;20306;-70
2022/02/26 17:21:26;;;;;;;;;;;9.00;99.90;;;;;;8380990;28;19925;-70
2022/02/26 17:25:28;;;;;;;;;;;8.90;99.90;;;;;;8372084;28;19932;-69
2022/02/26 17:29:29;;;;;;;;;;;8.80;99.90;;;;;;8385488;28;19928;-70
2022/02/26 17:33:31;;;;;;;;;;;8.70;99.90;;;;;;8386998;28;20433;-70
2022/02/26 17:37:33;;;;;;;;;;;8.60;99.90;;;;;;8360766;28;19920;-69
2022/02/26 17:41:34;;;;;;;;;;;8.50;99.90;;;;;;8355327;28;19983;-70
2022/02/26 17:45:38;;;;;;;;;;;8.40;99.90;;;;;;8351830;28;20149;-70
2022/02/26 17:49:41;;;;;;;;;;;8.10;99.90;;;;;;8355767;28;19925;-70
2022/02/26 17:53:44;;;;;;;;;;;8.00;99.90;;;;;;8360338;28;19928;-70
2022/02/26 17:57:46;;;;;;;;;;;7.80;99.90;;;;;;8362216;28;19921;-70
2022/02/26 18:01:48;;;;;;;;;;;7.60;99.90;;;;;;8366164;28;19929;-70
2022/02/26 18:05:49;;;;;;;;;;;7.40;99.90;;;;;;8355268;28;19968;-70
2022/02/26 18:09:51;;;;;;;;;;;7.20;99.90;;;;;;8352016;28;19925;-70
2022/02/26 18:13:53;;;;;;;;;;;7.00;99.90;;;;;;8354297;28;19928;-70
2022/02/26 18:17:54;;;;;;;;;;;6.80;99.90;;;;;;8355994;28;19928;-70
2022/02/26 18:21:59;;;;;;;;;;;6.70;99.90;;;;;;8379208;28;19929;-70
2022/02/26 18:26:02;;;;;;;;;;;6.60;99.90;;;;;;8359808;28;19925;-70
2022/02/26 18:30:05;;;;;;;;;;;6.40;99.90;;;;;;8362271;28;19920;-70
2022/02/26 18:34:10;;;;;;;;;;;6.40;99.90;;;;;;8361865;28;20387;-69
2022/02/26 18:38:12;;;;;;;;;;;6.40;99.90;;;;;;8373285;28;19970;-70
2022/02/26 18:42:14;;;;;;;;;;;6.30;99.90;;;;;;8371050;28;19920;-69
2022/02/26 18:46:16;;;;;;;;;;;6.20;99.90;;;;;;8358430;28;20312;-70
2022/02/26 18:50:18;;;;;;;;;;;6.10;99.90;;;;;;8364122;28;19927;-69
2022/02/26 18:54:20;;;;;;;;;;;6.00;99.90;;;;;;8358690;28;19944;-69
2022/02/26 18:58:22;;;;;;;;;;;5.90;99.90;;;;;;8363994;28;20292;-69
2022/02/26 19:02:24;;;;;;;;;;;5.90;99.90;;;;;;8361337;28;19928;-69
2022/02/26 19:06:26;;;;;;;;;;;5.90;99.90;;;;;;8358103;28;19927;-70
2022/02/26 19:10:28;;;;;;;;;;;5.90;99.90;;;;;;8360231;28;20023;-70
2022/02/26 19:14:31;;;;;;;;;;;5.80;99.90;;;;;;8360129;28;19931;-70
2022/02/26 19:18:33;;;;;;;;;;;5.70;99.90;;;;;;8361609;28;19927;-70
2022/02/26 19:22:37;;;;;;;;;;;5.70;99.90;;;;;;8359360;28;19971;-70
2022/02/26 19:26:39;;;;;;;;;;;5.60;99.90;;;;;;8355434;28;19921;-71
2022/02/26 19:30:42;;;;;;;;;;;5.60;99.90;;;;;;8358187;28;19972;-70
2022/02/26 19:34:43;;;;;;;;;;;5.50;99.90;;;;;;8370268;28;19992;-70
2022/02/26 19:38:45;;;;;;;;;;;5.50;99.90;;;;;;8360360;28;20384;-70
2022/02/26 19:42:46;;;;;;;;;;;5.40;99.90;;;;;;8361565;28;19928;-70
2022/02/26 19:46:48;;;;;;;;;;;5.40;99.90;;;;;;8357270;28;19925;-70
2022/02/26 19:50:50;;;;;;;;;;;5.40;99.90;;;;;;8358588;28;19924;-70
2022/02/26 19:54:52;;;;;;;;;;;5.30;99.90;;;;;;8361605;28;19959;-70
2022/02/26 19:58:53;;;;;;;;;;;5.30;99.90;;;;;;8363235;28;19928;-70
2022/02/26 20:02:55;;;;;;;;;;;5.20;99.90;;;;;;8362317;28;19956;-69
2022/02/26 20:06:57;;;;;;;;;;;5.10;99.90;;;;;;8355081;28;19928;-70
2022/02/26 20:10:58;;;;;;;;;;;5.00;99.90;;;;;;8362817;28;19924;-69
2022/02/26 20:15:00;;;;;;;;;;;5.00;99.90;;;;;;8356928;28;19947;-70
2022/02/26 20:19:02;;;;;;;;;;;4.90;99.90;;;;;;8360408;28;20365;-70
2022/02/26 20:23:03;;;;;;;;;;;4.90;99.90;;;;;;8358465;28;20253;-70
2022/02/26 20:27:06;;;;;;;;;;;4.80;99.90;;;;;;8351068;28;19931;-70
2022/02/26 20:31:07;;;;;;;;;;;4.70;99.90;;;;;;8351533;28;19921;-70
2022/02/26 20:35:09;;;;;;;;;;;4.60;99.90;;;;;;8352364;28;19921;-70
2022/02/26 20:39:11;;;;;;;;;;;4.50;99.90;;;;;;8341511;28;19921;-70
2022/02/26 20:43:12;;;;;;;;;;;4.40;99.90;;;;;;8357858;28;19925;-70
2022/02/26 20:47:14;;;;;;;;;;;4.20;99.90;;;;;;8342468;28;19968;-70
2022/02/26 20:51:16;;;;;;;;;;;4.10;99.90;;;;;;8342973;28;19921;-70
2022/02/26 20:55:17;;;;;;;;;;;4.10;99.90;;;;;;8345037;28;19928;-70
2022/02/26 20:59:19;;;;;;;;;;;4.00;99.90;;;;;;8346250;28;20478;-70
2022/02/26 21:03:21;;;;;;;;;;;3.90;99.90;;;;;;8344583;28;20486;-70
2022/02/26 21:07:22;;;;;;;;;;;3.80;99.90;;;;;;8345277;28;19924;-70
2022/02/26 21:11:24;;;;;;;;;;;3.70;99.90;;;;;;8349618;28;19920;-70
2022/02/26 21:15:26;;;;;;;;;;;3.60;99.90;;;;;;8343915;28;19967;-70
2022/02/26 21:19:27;;;;;;;;;;;3.50;99.90;;;;;;8358986;28;19931;-70
2022/02/26 21:23:29;;;;;;;;;;;3.50;99.90;;;;;;8347295;28;19921;-70
2022/02/26 21:27:31;;;;;;;;;;;3.40;99.90;;;;;;8344595;28;20376;-70
2022/02/26 21:31:32;;;;;;;;;;;3.30;99.90;;;;;;8345937;28;19936;-70
2022/02/26 21:35:34;;;;;;;;;;;3.30;99.90;;;;;;8350715;28;19929;-70
2022/02/26 21:39:36;;;;;;;;;;;3.20;99.90;;;;;;8375635;28;19931;-70
2022/02/26 21:43:39;;;;;;;;;;;3.20;99.90;;;;;;8370971;28;20220;-70
2022/02/26 21:47:41;;;;;;;;;;;3.30;99.90;;;;;;8390015;28;19990;-70
2022/02/26 21:51:42;;;;;;;;;;;3.30;99.90;;;;;;8390345;28;19939;-70
2022/02/26 21:55:46;;;;;;;;;;;3.30;99.90;;;;;;8391522;28;19978;-70
2022/02/26 21:59:47;;;;;;;;;;;3.40;99.90;;;;;;8390706;28;19936;-70
2022/02/26 22:03:50;;;;;;;;;;;3.40;99.90;;;;;;8391071;28;20261;-70
2022/02/26 22:07:51;;;;;;;;;;;3.50;99.90;;;;;;8416323;28;19924;-70
2022/02/26 22:11:53;;;;;;;;;;;3.60;99.90;;;;;;8401695;28;19928;-70
2022/02/26 22:15:55;;;;;;;;;;;3.70;99.90;;;;;;8388728;28;19924;-70
2022/02/26 22:19:56;;;;;;;;;;;3.80;99.90;;;;;;8410394;28;19966;-70
2022/02/26 22:24:03;;;;;;;;;;;3.90;99.90;;;;;;8385026;28;19931;-70
2022/02/26 22:28:05;;;;;;;;;;;3.90;99.90;;;;;;8401444;28;19935;-70
2022/02/26 22:32:07;;;;;;;;;;;3.90;99.90;;;;;;8401936;28;19929;-70
2022/02/26 22:36:11;;;;;;;;;;;4.00;99.90;;;;;;8407418;28;19924;-70
2022/02/26 22:40:13;;;;;;;;;;;3.90;99.90;;;;;;8410289;28;20368;-70
2022/02/26 22:44:14;;;;;;;;;;;3.90;99.90;;;;;;8411344;28;19924;-70
2022/02/26 22:48:16;;;;;;;;;;;3.90;99.90;;;;;;8404559;28;19949;-70
2022/02/26 22:52:18;;;;;;;;;;;3.90;99.90;;;;;;8396886;28;19999;-70
2022/02/26 22:56:19;;;;;;;;;;;3.90;99.90;;;;;;8397300;28;20291;-70
2022/02/26 23:00:26;;;;;;;;;;;3.90;99.90;;;;;;8413355;28;19935;-70
2022/02/26 23:04:28;;;;;;;;;;;3.90;99.90;;;;;;8408626;28;19925;-70
2022/02/26 23:08:29;;;;;;;;;;;3.90;99.90;;;;;;8393447;28;19925;-70
2022/02/26 23:12:31;;;;;;;;;;;3.90;99.90;;;;;;8406981;28;19924;-70
2022/02/26 23:16:33;;;;;;;;;;;3.90;99.90;;;;;;8403450;28;19938;-70
2022/02/26 23:20:34;;;;;;;;;;;3.80;99.90;;;;;;8389280;28;19924;-70
2022/02/26 23:24:36;;;;;;;;;;;3.80;99.90;;;;;;8387343;28;20020;-70
2022/02/26 23:28:38;;;;;;;;;;;3.80;99.90;;;;;;8403263;28;19938;-70
2022/02/26 23:32:39;;;;;;;;;;;3.80;99.90;;;;;;8410636;28;19948;-70
2022/02/26 23:36:41;;;;;;;;;;;3.80;99.90;;;;;;8395735;28;19932;-71
2022/02/26 23:40:43;;;;;;;;;;;3.70;99.90;;;;;;8406246;28;20331;-70